Wetterdaten der Wetterstation 58769 Nachrodt-Wiblingwerde

Letzte Wetterlage 30.06.2015 16:14
Wetterdiagramm
Tabellarische Darstellung
Datum Temperatur Windchill Feuchte Luftdruck Windrichtung Windstärke Niederschlag
30.06.2015 16:24 28,8 °C 28,8 °C 45 % 1018,2 hPa 135 0.7 0 l/m²
30.06.2015 16:19 28,6 °C 28,6 °C 46 % 1018,2 hPa 180 1.0 0 l/m²
30.06.2015 16:14 28,5 °C 28,5 °C 46 % 1018,1 hPa 45 1.0 0 l/m²
30.06.2015 16:09 28,3 °C 28,3 °C 45 % 1018,3 hPa 1.0 0 l/m²
30.06.2015 16:04 28,3 °C 28,3 °C 46 % 1018,4 hPa 90 1.4 0 l/m²
30.06.2015 15:59 28,3 °C 28,3 °C 46 % 1018,3 hPa 90 0.3 0 l/m²
30.06.2015 15:54 28,2 °C 28,2 °C 46 % 1018,3 hPa 270 1.0 0 l/m²
30.06.2015 15:49 28,2 °C 28,2 °C 46 % 1018,4 hPa 135 1.4 0 l/m²
30.06.2015 15:44 28,1 °C 28,1 °C 46 % 1018,5 hPa 135 0.7 0 l/m²
30.06.2015 15:39 27,9 °C 27,9 °C 46 % 1018,3 hPa 90 1.0 0 l/m²
30.06.2015 15:34 27,7 °C 27,7 °C 46 % 1018,4 hPa 315 1.0 0 l/m²
30.06.2015 15:29 27,7 °C 27,7 °C 45 % 1018,5 hPa 180 1.4 0 l/m²
30.06.2015 15:24 27,8 °C 27,8 °C 46 % 1018,3 hPa 0.7 0 l/m²
30.06.2015 15:19 27,9 °C 27,9 °C 45 % 1018,6 hPa 45 1.0 0 l/m²
30.06.2015 15:14 28,2 °C 28,2 °C 46 % 1018,6 hPa 1.4 0 l/m²
30.06.2015 15:09 28,2 °C 28,2 °C 46 % 1018,4 hPa 135 1.0 0 l/m²
30.06.2015 15:04 28,1 °C 28,1 °C 47 % 1018,6 hPa 203 0.3 0 l/m²
30.06.2015 14:59 28,1 °C 28,1 °C 46 % 1018,4 hPa 225 0.7 0 l/m²
30.06.2015 14:54 28,0 °C 28,0 °C 47 % 1018,5 hPa 45 1.0 0 l/m²
30.06.2015 14:49 27,9 °C 27,9 °C 45 % 1018,5 hPa 90 1.0 0 l/m²
30.06.2015 14:44 28,0 °C 28,0 °C 47 % 1018,6 hPa 0.3 0 l/m²
30.06.2015 14:39 27,9 °C 27,9 °C 46 % 1018,6 hPa 68 1.4 0 l/m²
30.06.2015 14:34 27,8 °C 27,8 °C 46 % 1018,7 hPa 180 1.0 0 l/m²
30.06.2015 14:29 27,9 °C 27,9 °C 46 % 1018,9 hPa 90 1.7 0 l/m²
30.06.2015 14:24 27,7 °C 27,7 °C 46 % 1018,8 hPa 0.7 0 l/m²
Neue Wetterwarnung

Neue Niederschlagsmeldung
Neue Meldung
Regen Liveticker
    sehr starker Regen/Gewitter
    starker Regen/Gewitter
    mäßiger bis starker Regen
    mäßiger Regen
    leichter bis mäßiger Regen
    kein Regen